sensor_id;sensor_type;location;lat;lon;timestamp;P1;durP1;ratioP1;P2;durP2;ratioP2
41514;SDS011;27247;48.020;16.720;2022-09-09T00:03:02;0.97;;;0.63;;
41514;SDS011;27247;48.020;16.720;2022-09-09T00:07:25;1.95;;;0.60;;
41514;SDS011;27247;48.020;16.720;2022-09-09T00:12:10;0.68;;;0.68;;
41514;SDS011;27247;48.020;16.720;2022-09-09T00:16:24;1.10;;;0.80;;
41514;SDS011;27247;48.020;16.720;2022-09-09T00:21:03;2.00;;;0.85;;
41514;SDS011;27247;48.020;16.720;2022-09-09T00:25:28;2.17;;;0.73;;
41514;SDS011;27247;48.020;16.720;2022-09-09T00:29:51;1.65;;;0.65;;
41514;SDS011;27247;48.020;16.720;2022-09-09T00:34:15;1.95;;;1.02;;
41514;SDS011;27247;48.020;16.720;2022-09-09T00:38:35;2.63;;;1.20;;
41514;SDS011;27247;48.020;16.720;2022-09-09T00:42:53;0.82;;;0.80;;
41514;SDS011;27247;48.020;16.720;2022-09-09T00:57:39;0.90;;;0.80;;
41514;SDS011;27247;48.020;16.720;2022-09-09T01:01:40;2.45;;;0.90;;
41514;SDS011;27247;48.020;16.720;2022-09-09T01:10:03;1.53;;;1.00;;
41514;SDS011;27247;48.020;16.720;2022-09-09T01:18:45;3.65;;;0.93;;
41514;SDS011;27247;48.020;16.720;2022-09-09T01:27:22;1.88;;;0.75;;
41514;SDS011;27247;48.020;16.720;2022-09-09T01:31:39;4.63;;;1.00;;
41514;SDS011;27247;48.020;16.720;2022-09-09T01:36:11;0.95;;;0.70;;
41514;SDS011;27247;48.020;16.720;2022-09-09T01:40:28;0.80;;;0.80;;
41514;SDS011;27247;48.020;16.720;2022-09-09T01:44:38;1.20;;;0.90;;
41514;SDS011;27247;48.020;16.720;2022-09-09T01:48:50;1.95;;;1.00;;
41514;SDS011;27247;48.020;16.720;2022-09-09T01:53:02;3.38;;;1.00;;
41514;SDS011;27247;48.020;16.720;2022-09-09T01:57:23;1.77;;;0.90;;
41514;SDS011;27247;48.020;16.720;2022-09-09T02:01:57;2.60;;;0.90;;
41514;SDS011;27247;48.020;16.720;2022-09-09T02:15:07;3.10;;;1.10;;
41514;SDS011;27247;48.020;16.720;2022-09-09T02:19:48;3.78;;;1.13;;
41514;SDS011;27247;48.020;16.720;2022-09-09T02:24:02;1.38;;;0.90;;
41514;SDS011;27247;48.020;16.720;2022-09-09T02:28:17;1.77;;;1.27;;
41514;SDS011;27247;48.020;16.720;2022-09-09T02:32:32;2.45;;;0.90;;
41514;SDS011;27247;48.020;16.720;2022-09-09T02:36:45;8.98;;;1.13;;
41514;SDS011;27247;48.020;16.720;2022-09-09T02:40:56;2.00;;;1.05;;
41514;SDS011;27247;48.020;16.720;2022-09-09T02:45:08;4.32;;;1.00;;
41514;SDS011;27247;48.020;16.720;2022-09-09T02:58:23;1.08;;;0.90;;
41514;SDS011;27247;48.020;16.720;2022-09-09T03:02:34;1.08;;;0.90;;
41514;SDS011;27247;48.020;16.720;2022-09-09T03:06:44;4.30;;;0.80;;
41514;SDS011;27247;48.020;16.720;2022-09-09T03:10:55;0.73;;;0.73;;
41514;SDS011;27247;48.020;16.720;2022-09-09T03:15:06;1.50;;;0.98;;
41514;SDS011;27247;48.020;16.720;2022-09-09T03:19:17;2.70;;;1.23;;
41514;SDS011;27247;48.020;16.720;2022-09-09T03:23:28;1.52;;;1.05;;
41514;SDS011;27247;48.020;16.720;2022-09-09T03:27:39;4.55;;;1.20;;
41514;SDS011;27247;48.020;16.720;2022-09-09T03:31:50;1.80;;;1.23;;
41514;SDS011;27247;48.020;16.720;2022-09-09T03:36:01;2.42;;;1.20;;
41514;SDS011;27247;48.020;16.720;2022-09-09T03:40:11;2.25;;;1.45;;
41514;SDS011;27247;48.020;16.720;2022-09-09T03:44:22;2.17;;;1.58;;
41514;SDS011;27247;48.020;16.720;2022-09-09T03:48:33;2.05;;;1.05;;
41514;SDS011;27247;48.020;16.720;2022-09-09T03:52:43;2.10;;;0.90;;
41514;SDS011;27247;48.020;16.720;2022-09-09T03:56:53;2.38;;;1.10;;
41514;SDS011;27247;48.020;16.720;2022-09-09T04:01:08;1.87;;;1.10;;
41514;SDS011;27247;48.020;16.720;2022-09-09T04:05:20;1.40;;;0.80;;
41514;SDS011;27247;48.020;16.720;2022-09-09T04:09:30;2.80;;;1.10;;
41514;SDS011;27247;48.020;16.720;2022-09-09T04:13:40;1.93;;;1.00;;
41514;SDS011;27247;48.020;16.720;2022-09-09T04:17:51;8.02;;;1.17;;
41514;SDS011;27247;48.020;16.720;2022-09-09T04:22:01;2.37;;;0.83;;
41514;SDS011;27247;48.020;16.720;2022-09-09T04:26:12;3.20;;;1.30;;
41514;SDS011;27247;48.020;16.720;2022-09-09T04:30:22;3.23;;;1.27;;
41514;SDS011;27247;48.020;16.720;2022-09-09T04:34:34;5.30;;;1.63;;
41514;SDS011;27247;48.020;16.720;2022-09-09T04:38:45;3.25;;;1.20;;
41514;SDS011;27247;48.020;16.720;2022-09-09T04:42:59;2.08;;;1.10;;
41514;SDS011;27247;48.020;16.720;2022-09-09T04:47:10;2.10;;;1.20;;
41514;SDS011;27247;48.020;16.720;2022-09-09T04:51:20;4.03;;;1.67;;
41514;SDS011;27247;48.020;16.720;2022-09-09T04:55:31;4.68;;;1.60;;
41514;SDS011;27247;48.020;16.720;2022-09-09T04:59:42;2.45;;;1.20;;
41514;SDS011;27247;48.020;16.720;2022-09-09T05:03:52;3.87;;;1.47;;
41514;SDS011;27247;48.020;16.720;2022-09-09T05:08:07;1.85;;;1.15;;
41514;SDS011;27247;48.020;16.720;2022-09-09T05:12:18;1.20;;;1.10;;
41514;SDS011;27247;48.020;16.720;2022-09-09T05:16:29;3.13;;;1.27;;
41514;SDS011;27247;48.020;16.720;2022-09-09T05:20:40;3.65;;;1.30;;
41514;SDS011;27247;48.020;16.720;2022-09-09T05:24:52;3.65;;;1.35;;
41514;SDS011;27247;48.020;16.720;2022-09-09T05:29:02;1.47;;;0.80;;
41514;SDS011;27247;48.020;16.720;2022-09-09T05:33:13;5.97;;;1.60;;
41514;SDS011;27247;48.020;16.720;2022-09-09T05:37:23;1.80;;;1.50;;
41514;SDS011;27247;48.020;16.720;2022-09-09T05:41:33;4.93;;;1.90;;
41514;SDS011;27247;48.020;16.720;2022-09-09T05:45:44;3.85;;;1.35;;
41514;SDS011;27247;48.020;16.720;2022-09-09T05:49:56;3.30;;;1.25;;
41514;SDS011;27247;48.020;16.720;2022-09-09T05:54:06;2.73;;;1.70;;
41514;SDS011;27247;48.020;16.720;2022-09-09T05:58:17;4.40;;;1.42;;
41514;SDS011;27247;48.020;16.720;2022-09-09T06:02:28;6.65;;;1.80;;
41514;SDS011;27247;48.020;16.720;2022-09-09T06:06:38;2.40;;;1.60;;
41514;SDS011;27247;48.020;16.720;2022-09-09T06:10:49;5.85;;;2.17;;
41514;SDS011;27247;48.020;16.720;2022-09-09T06:15:01;5.07;;;2.22;;
41514;SDS011;27247;48.020;16.720;2022-09-09T06:19:14;2.53;;;1.67;;
41514;SDS011;27247;48.020;16.720;2022-09-09T06:23:25;1.83;;;1.48;;
41514;SDS011;27247;48.020;16.720;2022-09-09T06:27:36;3.15;;;1.67;;
41514;SDS011;27247;48.020;16.720;2022-09-09T06:31:46;4.00;;;1.43;;
41514;SDS011;27247;48.020;16.720;2022-09-09T06:35:57;3.97;;;1.88;;
41514;SDS011;27247;48.020;16.720;2022-09-09T06:40:08;2.85;;;1.58;;
41514;SDS011;27247;48.020;16.720;2022-09-09T06:44:19;2.22;;;1.50;;
41514;SDS011;27247;48.020;16.720;2022-09-09T06:48:29;2.17;;;1.38;;
41514;SDS011;27247;48.020;16.720;2022-09-09T06:52:40;1.60;;;1.38;;
41514;SDS011;27247;48.020;16.720;2022-09-09T06:56:50;3.63;;;1.30;;
41514;SDS011;27247;48.020;16.720;2022-09-09T07:01:02;2.30;;;1.07;;
41514;SDS011;27247;48.020;16.720;2022-09-09T07:05:18;4.60;;;1.15;;
41514;SDS011;27247;48.020;16.720;2022-09-09T07:09:29;2.15;;;1.15;;
41514;SDS011;27247;48.020;16.720;2022-09-09T07:13:41;2.50;;;1.20;;
41514;SDS011;27247;48.020;16.720;2022-09-09T07:17:52;2.95;;;1.67;;
41514;SDS011;27247;48.020;16.720;2022-09-09T07:22:03;1.88;;;1.27;;
41514;SDS011;27247;48.020;16.720;2022-09-09T07:26:15;2.03;;;1.25;;
41514;SDS011;27247;48.020;16.720;2022-09-09T07:30:29;1.48;;;1.13;;
41514;SDS011;27247;48.020;16.720;2022-09-09T07:34:40;1.83;;;1.15;;
41514;SDS011;27247;48.020;16.720;2022-09-09T07:38:51;7.00;;;1.50;;
41514;SDS011;27247;48.020;16.720;2022-09-09T07:43:06;3.35;;;1.25;;
41514;SDS011;27247;48.020;16.720;2022-09-09T07:47:17;2.65;;;0.90;;
41514;SDS011;27247;48.020;16.720;2022-09-09T07:51:28;2.97;;;1.38;;
41514;SDS011;27247;48.020;16.720;2022-09-09T07:55:40;6.20;;;0.80;;
41514;SDS011;27247;48.020;16.720;2022-09-09T07:59:50;2.87;;;1.00;;
41514;SDS011;27247;48.020;16.720;2022-09-09T08:04:03;1.15;;;1.05;;
41514;SDS011;27247;48.020;16.720;2022-09-09T08:08:17;3.35;;;1.20;;
41514;SDS011;27247;48.020;16.720;2022-09-09T08:12:27;5.45;;;1.30;;
41514;SDS011;27247;48.020;16.720;2022-09-09T08:16:39;2.47;;;0.93;;
41514;SDS011;27247;48.020;16.720;2022-09-09T08:20:51;1.15;;;0.98;;
41514;SDS011;27247;48.020;16.720;2022-09-09T08:25:01;2.20;;;0.90;;
41514;SDS011;27247;48.020;16.720;2022-09-09T08:29:12;0.85;;;0.63;;
41514;SDS011;27247;48.020;16.720;2022-09-09T08:33:23;4.90;;;1.00;;
41514;SDS011;27247;48.020;16.720;2022-09-09T08:37:35;1.88;;;1.00;;
41514;SDS011;27247;48.020;16.720;2022-09-09T08:46:28;3.65;;;1.40;;
41514;SDS011;27247;48.020;16.720;2022-09-09T08:50:42;2.38;;;0.93;;
41514;SDS011;27247;48.020;16.720;2022-09-09T08:54:55;2.35;;;0.80;;
41514;SDS011;27247;48.020;16.720;2022-09-09T08:59:12;2.65;;;0.75;;
41514;SDS011;27247;48.020;16.720;2022-09-09T09:12:18;3.75;;;0.90;;
41514;SDS011;27247;48.020;16.720;2022-09-09T09:21:12;2.13;;;0.85;;
41514;SDS011;27247;48.020;16.720;2022-09-09T09:25:32;2.28;;;0.95;;
41514;SDS011;27247;48.020;16.720;2022-09-09T09:29:46;1.33;;;0.73;;
41514;SDS011;27247;48.020;16.720;2022-09-09T09:33:59;1.77;;;0.88;;
41514;SDS011;27247;48.020;16.720;2022-09-09T09:38:15;2.55;;;1.70;;
41514;SDS011;27247;48.020;16.720;2022-09-09T09:42:32;2.63;;;0.80;;
41514;SDS011;27247;48.020;16.720;2022-09-09T09:46:42;2.57;;;0.73;;
41514;SDS011;27247;48.020;16.720;2022-09-09T09:51:00;1.47;;;0.90;;
41514;SDS011;27247;48.020;16.720;2022-09-09T09:55:16;2.17;;;0.90;;
41514;SDS011;27247;48.020;16.720;2022-09-09T10:03:39;1.40;;;0.80;;
41514;SDS011;27247;48.020;16.720;2022-09-09T10:08:11;1.85;;;0.50;;
41514;SDS011;27247;48.020;16.720;2022-09-09T10:12:26;2.90;;;1.00;;
41514;SDS011;27247;48.020;16.720;2022-09-09T10:21:58;2.00;;;0.73;;
41514;SDS011;27247;48.020;16.720;2022-09-09T10:31:06;3.40;;;0.47;;
41514;SDS011;27247;48.020;16.720;2022-09-09T10:35:42;0.95;;;0.75;;
41514;SDS011;27247;48.020;16.720;2022-09-09T10:40:13;1.33;;;0.90;;
41514;SDS011;27247;48.020;16.720;2022-09-09T10:49:11;0.80;;;0.80;;
41514;SDS011;27247;48.020;16.720;2022-09-09T10:53:35;1.38;;;0.60;;
41514;SDS011;27247;48.020;16.720;2022-09-09T10:57:52;1.92;;;0.60;;
41514;SDS011;27247;48.020;16.720;2022-09-09T11:02:11;2.13;;;0.98;;
41514;SDS011;27247;48.020;16.720;2022-09-09T11:06:29;2.05;;;0.85;;
41514;SDS011;27247;48.020;16.720;2022-09-09T11:10:54;1.73;;;0.77;;
41514;SDS011;27247;48.020;16.720;2022-09-09T11:15:17;1.50;;;0.60;;
41514;SDS011;27247;48.020;16.720;2022-09-09T11:19:34;0.70;;;0.70;;
41514;SDS011;27247;48.020;16.720;2022-09-09T11:23:52;2.17;;;0.77;;
41514;SDS011;27247;48.020;16.720;2022-09-09T11:28:14;3.33;;;0.68;;
41514;SDS011;27247;48.020;16.720;2022-09-09T11:37:05;3.03;;;0.85;;
41514;SDS011;27247;48.020;16.720;2022-09-09T11:41:33;1.50;;;0.70;;
41514;SDS011;27247;48.020;16.720;2022-09-09T11:45:53;4.05;;;0.57;;
41514;SDS011;27247;48.020;16.720;2022-09-09T11:54:32;2.30;;;0.63;;
41514;SDS011;27247;48.020;16.720;2022-09-09T12:08:15;2.03;;;0.60;;
41514;SDS011;27247;48.020;16.720;2022-09-09T12:12:36;3.15;;;0.90;;
41514;SDS011;27247;48.020;16.720;2022-09-09T12:16:47;4.10;;;0.70;;
41514;SDS011;27247;48.020;16.720;2022-09-09T12:34:15;0.77;;;0.43;;
41514;SDS011;27247;48.020;16.720;2022-09-09T12:38:40;2.70;;;0.77;;
41514;SDS011;27247;48.020;16.720;2022-09-09T12:42:51;2.20;;;0.65;;
41514;SDS011;27247;48.020;16.720;2022-09-09T12:47:02;2.65;;;0.63;;
41514;SDS011;27247;48.020;16.720;2022-09-09T12:51:18;5.63;;;0.88;;
41514;SDS011;27247;48.020;16.720;2022-09-09T12:55:36;0.60;;;0.50;;
41514;SDS011;27247;48.020;16.720;2022-09-09T12:59:48;0.90;;;0.50;;
41514;SDS011;27247;48.020;16.720;2022-09-09T13:03:59;1.13;;;0.57;;
41514;SDS011;27247;48.020;16.720;2022-09-09T13:08:10;0.88;;;0.77;;
41514;SDS011;27247;48.020;16.720;2022-09-09T13:12:22;3.35;;;0.60;;
41514;SDS011;27247;48.020;16.720;2022-09-09T13:16:34;5.82;;;0.63;;
41514;SDS011;27247;48.020;16.720;2022-09-09T13:20:47;1.00;;;0.75;;
41514;SDS011;27247;48.020;16.720;2022-09-09T13:24:59;1.20;;;0.68;;
41514;SDS011;27247;48.020;16.720;2022-09-09T13:29:16;2.08;;;0.70;;
41514;SDS011;27247;48.020;16.720;2022-09-09T13:37:42;0.88;;;0.63;;
41514;SDS011;27247;48.020;16.720;2022-09-09T13:41:52;0.70;;;0.60;;
41514;SDS011;27247;48.020;16.720;2022-09-09T13:46:22;1.77;;;0.40;;
41514;SDS011;27247;48.020;16.720;2022-09-09T13:50:53;0.80;;;0.40;;
41514;SDS011;27247;48.020;16.720;2022-09-09T13:55:08;1.33;;;0.52;;
41514;SDS011;27247;48.020;16.720;2022-09-09T13:59:20;1.38;;;0.60;;
41514;SDS011;27247;48.020;16.720;2022-09-09T14:03:31;2.10;;;0.60;;
41514;SDS011;27247;48.020;16.720;2022-09-09T14:07:42;1.73;;;0.60;;
41514;SDS011;27247;48.020;16.720;2022-09-09T14:11:53;1.55;;;0.88;;
41514;SDS011;27247;48.020;16.720;2022-09-09T14:16:05;4.30;;;1.10;;
41514;SDS011;27247;48.020;16.720;2022-09-09T14:20:15;1.42;;;0.60;;
41514;SDS011;27247;48.020;16.720;2022-09-09T14:24:27;5.60;;;0.70;;
41514;SDS011;27247;48.020;16.720;2022-09-09T14:28:37;0.83;;;0.40;;
41514;SDS011;27247;48.020;16.720;2022-09-09T14:32:50;0.63;;;0.50;;
41514;SDS011;27247;48.020;16.720;2022-09-09T14:37:00;3.93;;;0.90;;
41514;SDS011;27247;48.020;16.720;2022-09-09T14:41:11;3.97;;;0.77;;
41514;SDS011;27247;48.020;16.720;2022-09-09T14:45:26;2.92;;;0.65;;
41514;SDS011;27247;48.020;16.720;2022-09-09T14:49:37;0.93;;;0.73;;
41514;SDS011;27247;48.020;16.720;2022-09-09T14:53:48;8.70;;;0.98;;
41514;SDS011;27247;48.020;16.720;2022-09-09T14:58:00;3.70;;;1.15;;
41514;SDS011;27247;48.020;16.720;2022-09-09T15:02:11;2.63;;;0.93;;
41514;SDS011;27247;48.020;16.720;2022-09-09T15:06:24;2.30;;;0.85;;
41514;SDS011;27247;48.020;16.720;2022-09-09T15:10:35;11.18;;;1.60;;
41514;SDS011;27247;48.020;16.720;2022-09-09T15:14:47;9.82;;;1.00;;
41514;SDS011;27247;48.020;16.720;2022-09-09T15:18:58;2.65;;;0.93;;
41514;SDS011;27247;48.020;16.720;2022-09-09T15:23:10;7.10;;;1.83;;
41514;SDS011;27247;48.020;16.720;2022-09-09T15:27:20;2.88;;;1.30;;
41514;SDS011;27247;48.020;16.720;2022-09-09T15:31:31;6.90;;;1.20;;
41514;SDS011;27247;48.020;16.720;2022-09-09T15:35:42;2.53;;;1.38;;
41514;SDS011;27247;48.020;16.720;2022-09-09T15:39:52;3.30;;;0.87;;
41514;SDS011;27247;48.020;16.720;2022-09-09T15:44:02;6.70;;;0.97;;
41514;SDS011;27247;48.020;16.720;2022-09-09T15:48:13;4.80;;;1.42;;
41514;SDS011;27247;48.020;16.720;2022-09-09T15:52:24;0.97;;;0.83;;
41514;SDS011;27247;48.020;16.720;2022-09-09T15:56:34;1.70;;;0.60;;
41514;SDS011;27247;48.020;16.720;2022-09-09T16:00:44;1.87;;;0.63;;
41514;SDS011;27247;48.020;16.720;2022-09-09T16:04:55;0.47;;;0.45;;
41514;SDS011;27247;48.020;16.720;2022-09-09T16:09:07;1.05;;;0.68;;
41514;SDS011;27247;48.020;16.720;2022-09-09T16:13:18;1.42;;;0.60;;
41514;SDS011;27247;48.020;16.720;2022-09-09T16:17:28;0.73;;;0.70;;
41514;SDS011;27247;48.020;16.720;2022-09-09T16:21:40;1.27;;;0.67;;
41514;SDS011;27247;48.020;16.720;2022-09-09T16:25:55;2.03;;;0.82;;
41514;SDS011;27247;48.020;16.720;2022-09-09T16:30:06;1.17;;;0.65;;
41514;SDS011;27247;48.020;16.720;2022-09-09T16:34:17;1.70;;;0.88;;
41514;SDS011;27247;48.020;16.720;2022-09-09T16:38:28;1.60;;;1.08;;
41514;SDS011;27247;48.020;16.720;2022-09-09T16:42:39;1.85;;;1.02;;
41514;SDS011;27247;48.020;16.720;2022-09-09T16:46:50;5.60;;;1.20;;
41514;SDS011;27247;48.020;16.720;2022-09-09T16:51:05;3.88;;;1.10;;
41514;SDS011;27247;48.020;16.720;2022-09-09T16:55:18;1.80;;;0.88;;
41514;SDS011;27247;48.020;16.720;2022-09-09T16:59:30;4.10;;;1.45;;
41514;SDS011;27247;48.020;16.720;2022-09-09T17:03:41;1.80;;;1.02;;
41514;SDS011;27247;48.020;16.720;2022-09-09T17:07:53;3.92;;;1.38;;
41514;SDS011;27247;48.020;16.720;2022-09-09T17:12:05;1.85;;;0.95;;
41514;SDS011;27247;48.020;16.720;2022-09-09T17:16:17;0.95;;;0.80;;
41514;SDS011;27247;48.020;16.720;2022-09-09T17:20:34;2.10;;;1.40;;
41514;SDS011;27247;48.020;16.720;2022-09-09T17:24:46;4.05;;;1.10;;
41514;SDS011;27247;48.020;16.720;2022-09-09T17:28:57;3.03;;;1.50;;
41514;SDS011;27247;48.020;16.720;2022-09-09T17:33:10;1.63;;;0.98;;
41514;SDS011;27247;48.020;16.720;2022-09-09T17:37:21;5.20;;;1.10;;
41514;SDS011;27247;48.020;16.720;2022-09-09T17:41:35;2.58;;;1.30;;
41514;SDS011;27247;48.020;16.720;2022-09-09T17:45:47;3.33;;;1.52;;
41514;SDS011;27247;48.020;16.720;2022-09-09T17:49:58;2.03;;;1.13;;
41514;SDS011;27247;48.020;16.720;2022-09-09T17:54:12;4.07;;;1.30;;
41514;SDS011;27247;48.020;16.720;2022-09-09T17:58:24;3.25;;;1.63;;
41514;SDS011;27247;48.020;16.720;2022-09-09T18:02:36;2.35;;;1.95;;
41514;SDS011;27247;48.020;16.720;2022-09-09T18:06:48;2.83;;;1.10;;
41514;SDS011;27247;48.020;16.720;2022-09-09T18:11:03;4.22;;;1.25;;
41514;SDS011;27247;48.020;16.720;2022-09-09T18:15:14;4.55;;;1.20;;
41514;SDS011;27247;48.020;16.720;2022-09-09T18:19:25;5.35;;;1.35;;
41514;SDS011;27247;48.020;16.720;2022-09-09T18:23:39;4.07;;;1.20;;
41514;SDS011;27247;48.020;16.720;2022-09-09T18:27:51;2.90;;;1.42;;
41514;SDS011;27247;48.020;16.720;2022-09-09T18:32:03;5.25;;;1.17;;
41514;SDS011;27247;48.020;16.720;2022-09-09T18:36:18;1.63;;;1.20;;
41514;SDS011;27247;48.020;16.720;2022-09-09T18:40:30;1.67;;;1.17;;
41514;SDS011;27247;48.020;16.720;2022-09-09T18:44:41;1.95;;;1.20;;
41514;SDS011;27247;48.020;16.720;2022-09-09T18:48:52;3.63;;;1.42;;
41514;SDS011;27247;48.020;16.720;2022-09-09T18:53:02;3.25;;;1.60;;
41514;SDS011;27247;48.020;16.720;2022-09-09T18:57:13;2.60;;;1.10;;
41514;SDS011;27247;48.020;16.720;2022-09-09T19:01:23;2.03;;;1.40;;
41514;SDS011;27247;48.020;16.720;2022-09-09T19:05:34;4.90;;;1.95;;
41514;SDS011;27247;48.020;16.720;2022-09-09T19:09:45;1.45;;;1.30;;
41514;SDS011;27247;48.020;16.720;2022-09-09T19:13:57;3.67;;;1.83;;
41514;SDS011;27247;48.020;16.720;2022-09-09T19:18:09;5.55;;;1.80;;
41514;SDS011;27247;48.020;16.720;2022-09-09T19:22:19;1.63;;;1.40;;
41514;SDS011;27247;48.020;16.720;2022-09-09T19:26:32;1.60;;;1.37;;
41514;SDS011;27247;48.020;16.720;2022-09-09T19:30:46;2.08;;;1.33;;
41514;SDS011;27247;48.020;16.720;2022-09-09T19:34:56;3.15;;;1.60;;
41514;SDS011;27247;48.020;16.720;2022-09-09T19:39:07;3.83;;;1.53;;
41514;SDS011;27247;48.020;16.720;2022-09-09T19:43:18;1.73;;;1.55;;
41514;SDS011;27247;48.020;16.720;2022-09-09T19:47:29;5.43;;;2.17;;
41514;SDS011;27247;48.020;16.720;2022-09-09T19:51:39;3.03;;;1.63;;
41514;SDS011;27247;48.020;16.720;2022-09-09T19:55:50;3.55;;;1.63;;
41514;SDS011;27247;48.020;16.720;2022-09-09T20:00:00;3.85;;;1.50;;
41514;SDS011;27247;48.020;16.720;2022-09-09T20:04:13;2.03;;;1.48;;
41514;SDS011;27247;48.020;16.720;2022-09-09T20:08:23;2.50;;;1.70;;
41514;SDS011;27247;48.020;16.720;2022-09-09T20:12:36;4.05;;;2.00;;
41514;SDS011;27247;48.020;16.720;2022-09-09T20:16:46;1.70;;;1.60;;
41514;SDS011;27247;48.020;16.720;2022-09-09T20:21:00;1.77;;;1.43;;
41514;SDS011;27247;48.020;16.720;2022-09-09T20:25:12;3.40;;;1.58;;
41514;SDS011;27247;48.020;16.720;2022-09-09T20:29:24;4.32;;;1.73;;
41514;SDS011;27247;48.020;16.720;2022-09-09T20:33:34;1.63;;;1.20;;
41514;SDS011;27247;48.020;16.720;2022-09-09T20:37:45;3.25;;;1.40;;
41514;SDS011;27247;48.020;16.720;2022-09-09T20:41:55;1.42;;;1.25;;
41514;SDS011;27247;48.020;16.720;2022-09-09T20:46:06;3.83;;;1.77;;
41514;SDS011;27247;48.020;16.720;2022-09-09T20:50:16;1.70;;;1.37;;
41514;SDS011;27247;48.020;16.720;2022-09-09T20:54:27;2.67;;;1.42;;
41514;SDS011;27247;48.020;16.720;2022-09-09T20:58:39;4.50;;;1.55;;
41514;SDS011;27247;48.020;16.720;2022-09-09T21:02:49;2.07;;;1.47;;
41514;SDS011;27247;48.020;16.720;2022-09-09T21:07:00;1.90;;;1.53;;
41514;SDS011;27247;48.020;16.720;2022-09-09T21:11:11;2.67;;;1.60;;
41514;SDS011;27247;48.020;16.720;2022-09-09T21:15:22;2.72;;;1.35;;
41514;SDS011;27247;48.020;16.720;2022-09-09T21:19:33;2.53;;;1.40;;
41514;SDS011;27247;48.020;16.720;2022-09-09T21:23:44;3.15;;;1.42;;
41514;SDS011;27247;48.020;16.720;2022-09-09T21:27:54;3.07;;;1.47;;
41514;SDS011;27247;48.020;16.720;2022-09-09T21:32:05;3.97;;;1.67;;
41514;SDS011;27247;48.020;16.720;2022-09-09T21:36:15;3.83;;;1.70;;
41514;SDS011;27247;48.020;16.720;2022-09-09T21:40:26;2.13;;;1.60;;
41514;SDS011;27247;48.020;16.720;2022-09-09T21:44:36;2.87;;;1.50;;
41514;SDS011;27247;48.020;16.720;2022-09-09T21:48:46;1.95;;;1.52;;
41514;SDS011;27247;48.020;16.720;2022-09-09T21:52:57;4.50;;;2.10;;
41514;SDS011;27247;48.020;16.720;2022-09-09T21:57:07;7.77;;;2.23;;
41514;SDS011;27247;48.020;16.720;2022-09-09T22:01:17;4.50;;;1.85;;
41514;SDS011;27247;48.020;16.720;2022-09-09T22:05:29;3.42;;;1.90;;
41514;SDS011;27247;48.020;16.720;2022-09-09T22:09:40;3.22;;;1.90;;
41514;SDS011;27247;48.020;16.720;2022-09-09T22:13:50;4.77;;;2.17;;
41514;SDS011;27247;48.020;16.720;2022-09-09T22:18:03;4.90;;;2.47;;
41514;SDS011;27247;48.020;16.720;2022-09-09T22:22:14;6.53;;;2.88;;
41514;SDS011;27247;48.020;16.720;2022-09-09T22:26:25;5.20;;;2.50;;
41514;SDS011;27247;48.020;16.720;2022-09-09T22:30:37;9.10;;;2.63;;
41514;SDS011;27247;48.020;16.720;2022-09-09T22:34:47;10.13;;;2.90;;
41514;SDS011;27247;48.020;16.720;2022-09-09T22:39:00;5.82;;;3.05;;
41514;SDS011;27247;48.020;16.720;2022-09-09T22:43:15;6.20;;;3.15;;
41514;SDS011;27247;48.020;16.720;2022-09-09T22:47:26;6.53;;;3.50;;
41514;SDS011;27247;48.020;16.720;2022-09-09T22:51:37;7.53;;;2.83;;
41514;SDS011;27247;48.020;16.720;2022-09-09T22:55:57;4.90;;;2.70;;
41514;SDS011;27247;48.020;16.720;2022-09-09T23:00:09;7.50;;;3.25;;
41514;SDS011;27247;48.020;16.720;2022-09-09T23:04:22;4.22;;;3.13;;
41514;SDS011;27247;48.020;16.720;2022-09-09T23:08:34;5.63;;;2.80;;
41514;SDS011;27247;48.020;16.720;2022-09-09T23:12:46;6.13;;;2.88;;
41514;SDS011;27247;48.020;16.720;2022-09-09T23:16:57;5.50;;;3.10;;
41514;SDS011;27247;48.020;16.720;2022-09-09T23:21:09;5.80;;;3.10;;
41514;SDS011;27247;48.020;16.720;2022-09-09T23:25:20;4.55;;;2.50;;
41514;SDS011;27247;48.020;16.720;2022-09-09T23:29:31;5.32;;;2.97;;
41514;SDS011;27247;48.020;16.720;2022-09-09T23:33:42;5.37;;;2.83;;
41514;SDS011;27247;48.020;16.720;2022-09-09T23:37:52;5.47;;;3.15;;
41514;SDS011;27247;48.020;16.720;2022-09-09T23:42:03;7.33;;;3.40;;
41514;SDS011;27247;48.020;16.720;2022-09-09T23:46:17;5.93;;;3.72;;
41514;SDS011;27247;48.020;16.720;2022-09-09T23:50:31;7.97;;;4.57;;
41514;SDS011;27247;48.020;16.720;2022-09-09T23:54:41;5.07;;;3.50;;
41514;SDS011;27247;48.020;16.720;2022-09-09T23:58:52;10.07;;;3.83;;
